sensor_id;sensor_type;location;lat;lon;timestamp;P1;durP1;ratioP1;P2;durP2;ratioP2
71296;SDS011;59082;50.658;4.608;2022-12-05T06:44:49;33.72;;;17.17;;
71296;SDS011;59082;50.658;4.608;2022-12-05T06:47:14;34.77;;;16.67;;
71296;SDS011;59082;50.658;4.608;2022-12-05T06:49:40;37.73;;;16.20;;
71296;SDS011;59082;50.658;4.608;2022-12-05T06:52:05;33.42;;;16.27;;
71296;SDS011;59082;50.658;4.608;2022-12-05T06:54:31;32.30;;;16.37;;
71296;SDS011;59082;50.658;4.608;2022-12-05T06:56:56;29.97;;;16.27;;
71296;SDS011;59082;50.658;4.608;2022-12-05T06:59:22;31.80;;;16.02;;
71296;SDS011;59082;50.658;4.608;2022-12-05T07:01:47;32.27;;;15.50;;
71296;SDS011;59082;50.658;4.608;2022-12-05T07:04:23;32.78;;;15.07;;
71296;SDS011;59082;50.658;4.608;2022-12-05T07:06:49;34.53;;;15.45;;
71296;SDS011;59082;50.658;4.608;2022-12-05T07:09:16;28.57;;;15.57;;
71296;SDS011;59082;50.658;4.608;2022-12-05T14:23:37;16.85;;;10.90;;
71296;SDS011;59082;50.658;4.608;2022-12-05T14:34:22;17.23;;;10.43;;
71296;SDS011;59082;50.658;4.608;2022-12-05T14:44:46;14.88;;;10.35;;
71296;SDS011;59082;50.658;4.608;2022-12-05T14:47:16;15.67;;;10.57;;
71296;SDS011;59082;50.658;4.608;2022-12-05T14:49:52;13.80;;;9.55;;
71296;SDS011;59082;50.658;4.608;2022-12-05T14:52:36;13.23;;;9.32;;
71296;SDS011;59082;50.658;4.608;2022-12-05T14:55:06;13.18;;;8.98;;
71296;SDS011;59082;50.658;4.608;2022-12-05T14:57:44;13.32;;;8.85;;
71296;SDS011;59082;50.658;4.608;2022-12-05T15:00:20;14.50;;;9.83;;
71296;SDS011;59082;50.658;4.608;2022-12-05T15:02:46;14.52;;;9.68;;
71296;SDS011;59082;50.658;4.608;2022-12-05T15:05:25;14.35;;;9.68;;
71296;SDS011;59082;50.658;4.608;2022-12-05T15:07:54;15.07;;;10.35;;
71296;SDS011;59082;50.658;4.608;2022-12-05T15:10:22;15.75;;;10.60;;
71296;SDS011;59082;50.658;4.608;2022-12-05T15:12:56;16.17;;;11.17;;
71296;SDS011;59082;50.658;4.608;2022-12-05T15:15:34;17.10;;;10.45;;
71296;SDS011;59082;50.658;4.608;2022-12-05T15:23:42;34.58;;;21.73;;
71296;SDS011;59082;50.658;4.608;2022-12-05T15:31:44;15.93;;;10.48;;
71296;SDS011;59082;50.658;4.608;2022-12-05T15:34:20;19.75;;;12.05;;
71296;SDS011;59082;50.658;4.608;2022-12-05T15:39:54;18.80;;;10.87;;
71296;SDS011;59082;50.658;4.608;2022-12-05T15:42:22;19.85;;;12.88;;
71296;SDS011;59082;50.658;4.608;2022-12-05T15:44:53;16.77;;;11.80;;
71296;SDS011;59082;50.658;4.608;2022-12-05T15:47:39;18.90;;;11.10;;
71296;SDS011;59082;50.658;4.608;2022-12-05T15:50:11;15.05;;;11.32;;
71296;SDS011;59082;50.658;4.608;2022-12-05T15:52:41;19.27;;;11.20;;
71296;SDS011;59082;50.658;4.608;2022-12-05T15:55:20;16.33;;;11.88;;
71296;SDS011;59082;50.658;4.608;2022-12-05T15:58:01;16.40;;;10.93;;
71296;SDS011;59082;50.658;4.608;2022-12-05T16:00:44;16.70;;;10.93;;
71296;SDS011;59082;50.658;4.608;2022-12-05T16:05:54;17.00;;;11.10;;
71296;SDS011;59082;50.658;4.608;2022-12-05T16:08:24;18.02;;;10.95;;
71296;SDS011;59082;50.658;4.608;2022-12-05T16:10:55;15.98;;;11.18;;
71296;SDS011;59082;50.658;4.608;2022-12-05T16:13:21;16.67;;;11.15;;
71296;SDS011;59082;50.658;4.608;2022-12-05T16:15:49;13.17;;;10.23;;
71296;SDS011;59082;50.658;4.608;2022-12-05T16:18:28;29.25;;;12.85;;
71296;SDS011;59082;50.658;4.608;2022-12-05T16:20:54;16.20;;;11.65;;
71296;SDS011;59082;50.658;4.608;2022-12-05T16:23:31;18.27;;;10.93;;
71296;SDS011;59082;50.658;4.608;2022-12-05T16:28:59;18.73;;;11.43;;
71296;SDS011;59082;50.658;4.608;2022-12-05T16:31:26;19.50;;;12.45;;
71296;SDS011;59082;50.658;4.608;2022-12-05T16:36:27;18.25;;;11.25;;
71296;SDS011;59082;50.658;4.608;2022-12-05T16:39:26;19.57;;;12.10;;
71296;SDS011;59082;50.658;4.608;2022-12-05T16:41:45;17.35;;;11.18;;
71296;SDS011;59082;50.658;4.608;2022-12-05T16:46:56;19.10;;;12.80;;
71296;SDS011;59082;50.658;4.608;2022-12-05T16:49:35;19.95;;;12.15;;
71296;SDS011;59082;50.658;4.608;2022-12-05T16:54:32;23.20;;;13.68;;
71296;SDS011;59082;50.658;4.608;2022-12-05T16:56:58;23.30;;;14.15;;
71296;SDS011;59082;50.658;4.608;2022-12-05T16:59:29;22.83;;;14.10;;
71296;SDS011;59082;50.658;4.608;2022-12-05T17:01:57;22.60;;;14.05;;
71296;SDS011;59082;50.658;4.608;2022-12-05T17:04:23;25.95;;;14.70;;
71296;SDS011;59082;50.658;4.608;2022-12-05T17:06:49;24.45;;;14.57;;
71296;SDS011;59082;50.658;4.608;2022-12-05T17:09:15;26.47;;;16.00;;
71296;SDS011;59082;50.658;4.608;2022-12-05T17:11:41;22.07;;;15.53;;
71296;SDS011;59082;50.658;4.608;2022-12-05T17:14:10;24.17;;;14.32;;
71296;SDS011;59082;50.658;4.608;2022-12-05T17:16:39;24.95;;;15.52;;
71296;SDS011;59082;50.658;4.608;2022-12-05T17:19:05;23.20;;;15.13;;
71296;SDS011;59082;50.658;4.608;2022-12-05T17:21:31;23.60;;;14.30;;
71296;SDS011;59082;50.658;4.608;2022-12-05T17:23:58;23.33;;;15.18;;
71296;SDS011;59082;50.658;4.608;2022-12-05T17:26:24;27.27;;;15.07;;
71296;SDS011;59082;50.658;4.608;2022-12-05T17:28:50;25.20;;;15.18;;
71296;SDS011;59082;50.658;4.608;2022-12-05T17:31:17;27.33;;;16.97;;
71296;SDS011;59082;50.658;4.608;2022-12-05T17:33:44;28.48;;;16.75;;
71296;SDS011;59082;50.658;4.608;2022-12-05T17:36:10;29.23;;;17.20;;
71296;SDS011;59082;50.658;4.608;2022-12-05T17:38:36;26.00;;;16.13;;
71296;SDS011;59082;50.658;4.608;2022-12-05T17:41:02;27.63;;;16.63;;
71296;SDS011;59082;50.658;4.608;2022-12-05T17:43:27;26.93;;;16.63;;
71296;SDS011;59082;50.658;4.608;2022-12-05T17:45:53;27.97;;;16.47;;
71296;SDS011;59082;50.658;4.608;2022-12-05T17:48:21;28.67;;;17.60;;
71296;SDS011;59082;50.658;4.608;2022-12-05T17:50:47;30.27;;;17.80;;
71296;SDS011;59082;50.658;4.608;2022-12-05T17:53:16;28.45;;;17.58;;
71296;SDS011;59082;50.658;4.608;2022-12-05T17:55:43;26.27;;;16.15;;
71296;SDS011;59082;50.658;4.608;2022-12-05T17:58:09;25.57;;;16.37;;
71296;SDS011;59082;50.658;4.608;2022-12-05T18:00:35;25.20;;;16.10;;
71296;SDS011;59082;50.658;4.608;2022-12-05T18:03:01;27.98;;;17.52;;
71296;SDS011;59082;50.658;4.608;2022-12-05T18:05:28;26.08;;;16.73;;
71296;SDS011;59082;50.658;4.608;2022-12-05T18:07:53;29.63;;;16.27;;
71296;SDS011;59082;50.658;4.608;2022-12-05T18:10:20;27.17;;;17.33;;
71296;SDS011;59082;50.658;4.608;2022-12-05T18:12:49;30.13;;;17.55;;
71296;SDS011;59082;50.658;4.608;2022-12-05T18:15:15;28.00;;;15.73;;
71296;SDS011;59082;50.658;4.608;2022-12-05T18:17:42;23.38;;;15.82;;
71296;SDS011;59082;50.658;4.608;2022-12-05T18:20:13;28.10;;;16.58;;
71296;SDS011;59082;50.658;4.608;2022-12-05T18:22:40;28.60;;;15.20;;
71296;SDS011;59082;50.658;4.608;2022-12-05T18:25:06;29.73;;;17.83;;
71296;SDS011;59082;50.658;4.608;2022-12-05T18:27:37;26.83;;;16.80;;
71296;SDS011;59082;50.658;4.608;2022-12-05T18:30:03;25.73;;;14.88;;
71296;SDS011;59082;50.658;4.608;2022-12-05T18:32:30;25.02;;;15.38;;
71296;SDS011;59082;50.658;4.608;2022-12-05T18:34:55;27.80;;;17.47;;
71296;SDS011;59082;50.658;4.608;2022-12-05T18:37:23;27.50;;;16.73;;
71296;SDS011;59082;50.658;4.608;2022-12-05T18:39:49;28.73;;;17.80;;
71296;SDS011;59082;50.658;4.608;2022-12-05T18:42:15;27.70;;;16.37;;
71296;SDS011;59082;50.658;4.608;2022-12-05T18:44:40;31.50;;;17.70;;
71296;SDS011;59082;50.658;4.608;2022-12-05T18:47:06;28.53;;;16.40;;
71296;SDS011;59082;50.658;4.608;2022-12-05T18:49:32;29.65;;;17.77;;
71296;SDS011;59082;50.658;4.608;2022-12-05T18:51:57;34.00;;;19.33;;
71296;SDS011;59082;50.658;4.608;2022-12-05T18:54:23;27.07;;;17.03;;
71296;SDS011;59082;50.658;4.608;2022-12-05T18:56:48;31.70;;;17.83;;
71296;SDS011;59082;50.658;4.608;2022-12-05T18:59:17;30.37;;;17.03;;
71296;SDS011;59082;50.658;4.608;2022-12-05T19:01:44;34.53;;;18.88;;
71296;SDS011;59082;50.658;4.608;2022-12-05T19:04:11;32.60;;;16.20;;
71296;SDS011;59082;50.658;4.608;2022-12-05T19:06:39;35.67;;;18.00;;
71296;SDS011;59082;50.658;4.608;2022-12-05T19:09:10;27.73;;;15.93;;
71296;SDS011;59082;50.658;4.608;2022-12-05T19:11:38;28.37;;;15.97;;
71296;SDS011;59082;50.658;4.608;2022-12-05T19:14:04;31.45;;;16.88;;
71296;SDS011;59082;50.658;4.608;2022-12-05T19:16:31;25.47;;;15.73;;
71296;SDS011;59082;50.658;4.608;2022-12-05T19:18:58;26.98;;;15.82;;
71296;SDS011;59082;50.658;4.608;2022-12-05T19:21:26;30.08;;;17.00;;
71296;SDS011;59082;50.658;4.608;2022-12-05T19:23:54;28.75;;;17.23;;
71296;SDS011;59082;50.658;4.608;2022-12-05T19:26:20;29.38;;;17.00;;
71296;SDS011;59082;50.658;4.608;2022-12-05T19:28:47;33.00;;;17.80;;
71296;SDS011;59082;50.658;4.608;2022-12-05T19:31:14;35.22;;;17.70;;
71296;SDS011;59082;50.658;4.608;2022-12-05T19:33:42;30.90;;;18.13;;
71296;SDS011;59082;50.658;4.608;2022-12-05T19:36:15;35.40;;;18.38;;
71296;SDS011;59082;50.658;4.608;2022-12-05T19:38:49;33.72;;;18.50;;
71296;SDS011;59082;50.658;4.608;2022-12-05T19:41:16;36.50;;;16.83;;
71296;SDS011;59082;50.658;4.608;2022-12-05T19:43:47;39.70;;;17.85;;
71296;SDS011;59082;50.658;4.608;2022-12-05T19:46:14;35.22;;;17.73;;
71296;SDS011;59082;50.658;4.608;2022-12-05T19:48:43;31.60;;;17.33;;
71296;SDS011;59082;50.658;4.608;2022-12-05T19:51:10;33.28;;;16.75;;
71296;SDS011;59082;50.658;4.608;2022-12-05T19:53:36;41.03;;;17.03;;
71296;SDS011;59082;50.658;4.608;2022-12-05T19:56:06;33.42;;;17.45;;
71296;SDS011;59082;50.658;4.608;2022-12-05T19:58:37;35.15;;;16.92;;
71296;SDS011;59082;50.658;4.608;2022-12-05T20:01:07;34.85;;;18.35;;
71296;SDS011;59082;50.658;4.608;2022-12-05T20:03:34;41.00;;;17.17;;
71296;SDS011;59082;50.658;4.608;2022-12-05T20:06:00;44.45;;;18.05;;
71296;SDS011;59082;50.658;4.608;2022-12-05T20:08:25;39.28;;;18.10;;
71296;SDS011;59082;50.658;4.608;2022-12-05T20:10:51;48.57;;;17.77;;
71296;SDS011;59082;50.658;4.608;2022-12-05T20:13:17;45.30;;;17.93;;
71296;SDS011;59082;50.658;4.608;2022-12-05T20:15:46;43.25;;;18.40;;
71296;SDS011;59082;50.658;4.608;2022-12-05T20:18:12;48.17;;;19.10;;
71296;SDS011;59082;50.658;4.608;2022-12-05T20:20:38;41.20;;;17.73;;
71296;SDS011;59082;50.658;4.608;2022-12-05T20:23:04;36.40;;;16.80;;
71296;SDS011;59082;50.658;4.608;2022-12-05T20:25:34;37.42;;;17.73;;
71296;SDS011;59082;50.658;4.608;2022-12-05T20:28:00;42.22;;;19.00;;
71296;SDS011;59082;50.658;4.608;2022-12-05T20:30:25;36.03;;;17.17;;
71296;SDS011;59082;50.658;4.608;2022-12-05T20:32:51;34.35;;;18.10;;
71296;SDS011;59082;50.658;4.608;2022-12-05T20:35:16;37.20;;;16.30;;
71296;SDS011;59082;50.658;4.608;2022-12-05T20:37:42;45.50;;;15.00;;
71296;SDS011;59082;50.658;4.608;2022-12-05T20:40:08;41.45;;;16.80;;
71296;SDS011;59082;50.658;4.608;2022-12-05T20:42:34;36.47;;;17.13;;
71296;SDS011;59082;50.658;4.608;2022-12-05T20:44:59;49.40;;;16.35;;
71296;SDS011;59082;50.658;4.608;2022-12-05T20:47:25;44.90;;;16.40;;
71296;SDS011;59082;50.658;4.608;2022-12-05T20:49:50;56.43;;;16.80;;
71296;SDS011;59082;50.658;4.608;2022-12-05T20:52:16;42.13;;;15.77;;
71296;SDS011;59082;50.658;4.608;2022-12-05T20:54:41;39.57;;;16.20;;
71296;SDS011;59082;50.658;4.608;2022-12-05T20:57:07;35.07;;;15.90;;
71296;SDS011;59082;50.658;4.608;2022-12-05T20:59:32;42.10;;;17.58;;
71296;SDS011;59082;50.658;4.608;2022-12-05T21:01:58;31.97;;;16.70;;
71296;SDS011;59082;50.658;4.608;2022-12-05T21:04:23;31.80;;;16.37;;
71296;SDS011;59082;50.658;4.608;2022-12-05T21:06:49;48.05;;;18.00;;
71296;SDS011;59082;50.658;4.608;2022-12-05T21:09:15;51.13;;;17.63;;
71296;SDS011;59082;50.658;4.608;2022-12-05T21:11:50;51.17;;;20.33;;
71296;SDS011;59082;50.658;4.608;2022-12-05T21:14:15;53.13;;;19.17;;
71296;SDS011;59082;50.658;4.608;2022-12-05T21:16:42;40.13;;;18.33;;
71296;SDS011;59082;50.658;4.608;2022-12-05T21:19:07;51.50;;;18.90;;
71296;SDS011;59082;50.658;4.608;2022-12-05T21:21:33;55.97;;;16.98;;
71296;SDS011;59082;50.658;4.608;2022-12-05T21:24:00;50.93;;;18.37;;
71296;SDS011;59082;50.658;4.608;2022-12-05T21:26:27;58.85;;;18.20;;
71296;SDS011;59082;50.658;4.608;2022-12-05T21:28:54;45.55;;;17.83;;
71296;SDS011;59082;50.658;4.608;2022-12-05T21:31:25;46.90;;;17.85;;
71296;SDS011;59082;50.658;4.608;2022-12-05T21:33:59;52.75;;;18.40;;
71296;SDS011;59082;50.658;4.608;2022-12-05T21:36:28;60.33;;;18.03;;
71296;SDS011;59082;50.658;4.608;2022-12-05T21:38:55;60.97;;;17.50;;
71296;SDS011;59082;50.658;4.608;2022-12-05T21:41:20;52.30;;;17.70;;
71296;SDS011;59082;50.658;4.608;2022-12-05T21:43:46;60.43;;;17.30;;
71296;SDS011;59082;50.658;4.608;2022-12-05T21:46:11;49.37;;;17.17;;
71296;SDS011;59082;50.658;4.608;2022-12-05T21:48:37;39.47;;;17.73;;
71296;SDS011;59082;50.658;4.608;2022-12-05T21:51:05;62.65;;;21.70;;
71296;SDS011;59082;50.658;4.608;2022-12-05T21:53:32;45.90;;;20.13;;
71296;SDS011;59082;50.658;4.608;2022-12-05T21:56:02;57.73;;;23.10;;
71296;SDS011;59082;50.658;4.608;2022-12-05T21:58:30;47.03;;;21.50;;
71296;SDS011;59082;50.658;4.608;2022-12-05T22:00:55;45.30;;;17.45;;
71296;SDS011;59082;50.658;4.608;2022-12-05T22:03:21;38.37;;;19.27;;
71296;SDS011;59082;50.658;4.608;2022-12-05T22:05:46;54.72;;;19.45;;
71296;SDS011;59082;50.658;4.608;2022-12-05T22:08:13;52.40;;;18.50;;
71296;SDS011;59082;50.658;4.608;2022-12-05T22:10:39;42.08;;;17.23;;
71296;SDS011;59082;50.658;4.608;2022-12-05T22:13:06;44.58;;;16.83;;
71296;SDS011;59082;50.658;4.608;2022-12-05T22:15:31;55.63;;;16.67;;
71296;SDS011;59082;50.658;4.608;2022-12-05T22:17:57;51.70;;;16.23;;
71296;SDS011;59082;50.658;4.608;2022-12-05T22:20:22;50.17;;;16.57;;
71296;SDS011;59082;50.658;4.608;2022-12-05T22:22:48;44.90;;;15.67;;
71296;SDS011;59082;50.658;4.608;2022-12-05T22:25:14;40.42;;;16.67;;
71296;SDS011;59082;50.658;4.608;2022-12-05T22:27:40;38.90;;;15.47;;
71296;SDS011;59082;50.658;4.608;2022-12-05T22:30:06;58.60;;;19.48;;
71296;SDS011;59082;50.658;4.608;2022-12-05T22:32:32;54.05;;;19.95;;
71296;SDS011;59082;50.658;4.608;2022-12-05T22:34:57;36.77;;;18.20;;
71296;SDS011;59082;50.658;4.608;2022-12-05T22:37:23;51.73;;;20.47;;
71296;SDS011;59082;50.658;4.608;2022-12-05T22:39:48;60.83;;;18.45;;
71296;SDS011;59082;50.658;4.608;2022-12-05T22:42:14;68.67;;;20.73;;
71296;SDS011;59082;50.658;4.608;2022-12-05T22:44:39;56.23;;;21.33;;
71296;SDS011;59082;50.658;4.608;2022-12-05T22:47:05;49.30;;;19.73;;
71296;SDS011;59082;50.658;4.608;2022-12-05T22:49:30;45.43;;;19.53;;
